Time;durP1;ratioP1;P1;durP2;ratioP2;P2;SDS_P1;SDS_P2;PMS_P1;PMS_P2;Temp;Humidity;BMP_temperature;BMP_pressure;BME280_temperature;BME280_humidity;BME280_pressure;Samples;Min_cycle;Max_cycle;Signal;HPM_P1;HPM_P2
2022/09/04 00:01:17;;;;;;;3.30;2.35;;;;;;;9.56;78.43;100059.22;4970090;28;20174;-41
2022/09/04 00:03:57;;;;;;;2.95;2.17;;;;;;;9.53;78.94;100046.31;4971029;28;20047;-40
2022/09/04 00:06:28;;;;;;;3.30;2.30;;;;;;;9.52;78.70;100053.28;4955766;28;20050;-41
2022/09/04 00:09:06;;;;;;;4.53;2.20;;;;;;;9.51;78.87;100058.50;4972190;28;20049;-42
2022/09/04 00:11:43;;;;;;;3.92;2.00;;;;;;;9.51;79.30;100061.94;4971624;28;20429;-41
2022/09/04 00:14:21;;;;;;;2.63;1.83;;;;;;;9.34;79.14;100043.31;4973167;28;20058;-41
2022/09/04 00:16:54;;;;;;;3.35;2.10;;;;;;;9.46;79.32;100066.38;4970465;28;20046;-42
2022/09/04 00:19:39;;;;;;;6.78;2.10;;;;;;;9.44;79.73;100062.97;4970676;28;20107;-43
2022/09/04 00:22:30;;;;;;;5.03;2.80;;;;;;;9.45;80.24;100063.81;4971049;28;20042;-43
2022/09/04 00:25:34;;;;;;;5.15;2.10;;;;;;;9.43;80.51;100071.63;4954019;28;20134;-46
2022/09/04 00:28:16;;;;;;;3.72;2.20;;;;;;;9.41;80.31;100062.19;4958032;28;20058;-41
2022/09/04 00:30:52;;;;;;;5.70;2.58;;;;;;;9.32;80.30;100053.72;4955806;28;20154;-45
2022/09/04 00:33:45;;;;;;;3.67;2.10;;;;;;;9.38;81.07;100065.69;4986150;28;20059;-42
2022/09/04 00:36:12;;;;;;;4.22;2.58;;;;;;;9.24;81.01;100041.81;4954545;28;20046;-41
2022/09/04 00:38:52;;;;;;;7.45;2.20;;;;;;;9.30;80.96;100052.94;4971383;28;20042;-42
2022/09/04 00:42:01;;;;;;;3.97;2.20;;;;;;;9.34;81.57;100062.34;4970023;28;20086;-42
2022/09/04 00:44:59;;;;;;;4.63;2.20;;;;;;;9.32;81.68;100066.69;4960888;28;20064;-41
2022/09/04 00:47:39;;;;;;;4.00;2.60;;;;;;;9.31;81.64;100066.75;4970192;28;20038;-41
2022/09/04 00:50:16;;;;;;;5.65;2.40;;;;;;;9.27;81.87;100063.34;4971688;28;20057;-43
2022/09/04 00:52:57;;;;;;;3.17;2.17;;;;;;;9.26;82.39;100066.00;4972069;28;20576;-42
2022/09/04 00:55:35;;;;;;;3.97;2.35;;;;;;;9.22;82.20;100064.34;4955442;28;20043;-44
2022/09/04 00:58:22;;;;;;;2.90;2.05;;;;;;;9.18;82.86;100055.78;4972219;28;20074;-42
2022/09/04 01:00:48;;;;;;;3.80;2.30;;;;;;;9.16;82.90;100067.94;4969684;28;20066;-41
2022/09/04 01:03:44;;;;;;;5.90;2.50;;;;;;;9.15;83.23;100068.00;4970754;28;20038;-42
2022/09/04 01:06:40;;;;;;;5.10;2.38;;;;;;;9.11;83.41;100066.31;4970381;28;20070;-42
2022/09/04 01:09:21;;;;;;;6.38;2.72;;;;;;;9.07;84.17;100068.13;4970989;28;20030;-42
2022/09/04 01:11:53;;;;;;;3.55;2.55;;;;;;;9.05;84.50;100066.50;4971756;28;20138;-42
2022/09/04 01:14:38;;;;;;;4.93;2.45;;;;;;;9.03;84.81;100060.47;4972133;28;20046;-43
2022/09/04 01:17:18;;;;;;;6.90;2.42;;;;;;;9.03;85.01;100063.06;4969970;28;20538;-41
2022/09/04 01:19:53;;;;;;;;;;;;;;;9.03;85.04;100063.06;4969952;28;20046;-42
2022/09/04 01:22:50;;;;;;;3.72;2.33;;;;;;;8.98;85.03;100068.34;4971537;28;19928;-42
2022/09/04 01:25:42;;;;;;;3.78;2.67;;;;;;;8.95;85.41;100067.56;4971832;28;20169;-41
2022/09/04 01:28:19;;;;;;;4.75;2.38;;;;;;;8.92;85.29;100069.34;4968859;28;20054;-42
2022/09/04 01:31:04;;;;;;;5.32;2.55;;;;;;;8.90;85.40;100068.50;4969072;28;20100;-42
2022/09/04 01:33:43;;;;;;;4.97;2.60;;;;;;;8.91;86.01;100072.81;4971075;28;20039;-44
2022/09/04 01:36:18;;;;;;;3.00;2.42;;;;;;;8.91;86.10;100072.81;4969608;28;20046;-43
2022/09/04 01:38:49;;;;;;;6.03;2.90;;;;;;;8.88;86.10;100072.88;4970615;28;20047;-42
2022/09/04 01:41:32;;;;;;;8.50;3.17;;;;;;;8.85;86.69;100072.06;4968820;28;20097;-43
2022/09/04 01:43:58;;;;;;;4.60;2.83;;;;;;;8.83;87.03;100071.28;4967282;28;20142;-41
2022/09/04 01:46:30;;;;;;;6.20;3.42;;;;;;;8.80;87.37;100068.72;4956855;28;20101;-45
2022/09/04 01:48:56;;;;;;;5.78;3.22;;;;;;;8.78;88.12;100076.56;4986404;28;20054;-41
2022/09/04 01:51:27;;;;;;;6.78;3.30;;;;;;;8.79;88.31;100067.03;4965755;28;20098;-41
2022/09/04 01:54:06;;;;;;;11.40;3.00;;;;;;;8.72;88.32;100063.72;4971160;28;20061;-42
2022/09/04 01:57:04;;;;;;;6.90;3.35;;;;;;;8.73;89.00;100070.63;4971225;28;20050;-41
2022/09/04 02:00:01;;;;;;;4.40;3.05;;;;;;;8.72;89.08;100065.47;4970335;28;20046;-40
2022/09/04 02:02:55;;;;;;;8.10;3.10;;;;;;;8.69;89.31;100070.72;4967993;28;20113;-41
2022/09/04 02:05:54;;;;;;;8.80;3.28;;;;;;;8.68;89.95;100061.22;4969470;28;20105;-42
2022/09/04 02:08:47;;;;;;;8.32;3.42;;;;;;;8.65;90.11;100058.69;4970450;28;20039;-42
2022/09/04 02:11:13;;;;;;;7.40;3.72;;;;;;;8.63;90.11;100053.56;4971127;28;20102;-42
2022/09/04 02:14:07;;;;;;;5.45;3.28;;;;;;;8.63;90.32;100063.06;4970877;28;20457;-41
2022/09/04 02:16:45;;;;;;;6.32;3.25;;;;;;;8.60;90.04;100045.81;4970176;28;20039;-42
2022/09/04 02:19:23;;;;;;;6.75;3.20;;;;;;;8.58;90.21;100057.13;4985883;28;20043;-42
2022/09/04 02:21:55;;;;;;;6.70;3.67;;;;;;;8.55;90.83;100059.75;4968635;28;20054;-41
2022/09/04 02:24:39;;;;;;;5.57;3.35;;;;;;;8.53;90.92;100066.72;4981554;28;20046;-41
2022/09/04 02:27:14;;;;;;;7.45;3.42;;;;;;;8.50;91.05;100060.72;4972792;28;20053;-43
2022/09/04 02:30:02;;;;;;;6.95;3.10;;;;;;;8.46;91.38;100060.81;4969446;28;20578;-40
2022/09/04 02:32:48;;;;;;;9.23;3.72;;;;;;;8.44;91.31;100066.00;4949883;28;20039;-43
2022/09/04 02:35:20;;;;;;;4.85;3.17;;;;;;;8.42;91.42;100062.59;4964859;28;20035;-47
2022/09/04 02:38:19;;;;;;;6.75;3.33;;;;;;;8.39;90.93;100064.38;4968674;28;20042;-44
2022/09/04 02:40:59;;;;;;;7.10;3.33;;;;;;;8.34;91.69;100071.38;4970426;28;20055;-42
2022/09/04 02:43:56;;;;;;;8.35;3.08;;;;;;;8.31;91.56;100068.88;4951846;28;20250;-42
2022/09/04 02:46:30;;;;;;;7.65;3.05;;;;;;;8.28;91.67;100069.75;4968458;28;20046;-43
2022/09/04 02:49:19;;;;;;;4.75;2.35;;;;;;;8.26;91.65;100071.53;4969439;28;20081;-42
2022/09/04 02:52:20;;;;;;;5.57;2.38;;;;;;;8.27;92.04;100068.03;4979932;28;20102;-41
2022/09/04 02:55:17;;;;;;;3.92;2.22;;;;;;;8.26;91.80;100068.94;4958932;28;20111;-43
2022/09/04 02:58:13;;;;;;;3.97;2.75;;;;;;;8.27;91.86;100078.38;4970196;28;20081;-41
2022/09/04 03:01:02;;;;;;;4.00;2.60;;;;;;;8.27;91.93;100073.19;4970140;28;20073;-41
2022/09/04 03:04:01;;;;;;;4.22;2.40;;;;;;;8.28;91.88;100067.16;4948964;28;20101;-42
2022/09/04 03:06:47;;;;;;;5.45;2.58;;;;;;;8.23;91.77;100068.97;4950908;28;20078;-42
2022/09/04 03:09:33;;;;;;;3.95;2.35;;;;;;;8.27;91.72;100077.56;4955136;28;20054;-42
2022/09/04 03:12:25;;;;;;;4.97;2.13;;;;;;;8.28;91.79;100071.47;4965371;28;20030;-42
2022/09/04 03:15:23;;;;;;;3.50;2.30;;;;;;;8.31;91.80;100080.09;4972157;28;20034;-41
2022/09/04 03:18:29;;;;;;;3.90;2.35;;;;;;;8.33;91.80;100075.72;4935435;28;20058;-42
2022/09/04 03:21:22;;;;;;;9.00;2.47;;;;;;;8.36;92.04;100075.69;4917397;29;20138;-41
2022/09/04 03:23:53;;;;;;;3.53;2.00;;;;;;;8.41;91.72;100078.19;4972511;28;20058;-42
2022/09/04 03:26:49;;;;;;;4.72;2.30;;;;;;;8.31;91.65;100054.19;4971557;28;20054;-42
2022/09/04 03:29:27;;;;;;;2.95;2.05;;;;;;;8.46;91.48;100081.53;4955352;28;20109;-42
2022/09/04 03:32:02;;;;;;;3.70;3.00;;;;;;;8.47;91.40;100086.69;4973650;28;20425;-44
2022/09/04 03:34:33;;;;;;;2.72;2.15;;;;;;;8.48;91.17;100088.38;4973618;28;20141;-45
2022/09/04 03:37:05;;;;;;;2.95;2.20;;;;;;;8.50;90.61;100073.66;4972904;28;20134;-42
2022/09/04 03:39:43;;;;;;;3.75;2.30;;;;;;;8.52;90.60;100085.75;4972503;28;20209;-42
2022/09/04 03:42:33;;;;;;;3.10;2.05;;;;;;;8.56;90.09;100079.59;4972481;28;20403;-41
2022/09/04 03:45:05;;;;;;;5.10;2.20;;;;;;;8.61;90.01;100081.22;4972496;28;20049;-42
2022/09/04 03:47:31;;;;;;;6.38;2.67;;;;;;;8.66;89.80;100079.41;4973755;28;20038;-41
2022/09/04 03:50:02;;;;;;;4.95;2.20;;;;;;;8.70;89.56;100075.00;4969848;28;20049;-40
2022/09/04 03:52:54;;;;;;;3.45;2.25;;;;;;;8.78;89.29;100070.53;4973516;28;20035;-43
2022/09/04 03:55:36;;;;;;;3.50;2.20;;;;;;;8.82;89.04;100077.34;4956010;28;20137;-42
2022/09/04 03:58:37;;;;;;;2.65;2.05;;;;;;;8.87;88.69;100078.94;4972264;28;20038;-40
2022/09/04 04:01:13;;;;;;;3.05;2.10;;;;;;;8.88;87.76;100082.41;4972431;28;20137;-41
2022/09/04 04:04:14;;;;;;;4.47;2.10;;;;;;;8.82;87.23;100061.78;4971074;28;20108;-41
2022/09/04 04:07:00;;;;;;;4.50;2.13;;;;;;;8.99;86.91;100077.84;4986256;28;20126;-42
2022/09/04 04:09:57;;;;;;;4.72;1.90;;;;;;;9.07;86.60;100080.25;4969722;28;20041;-43
2022/09/04 04:12:49;;;;;;;2.47;1.83;;;;;;;9.11;85.68;100074.09;4970357;28;20043;-42
2022/09/04 04:15:26;;;;;;;4.25;1.90;;;;;;;9.16;84.80;100075.72;4952621;28;20113;-41
2022/09/04 04:18:04;;;;;;;1.90;1.60;;;;;;;9.21;83.92;100073.03;4971843;28;20070;-43
2022/09/04 04:20:40;;;;;;;3.25;1.70;;;;;;;9.26;83.56;100074.63;4971173;28;20035;-46
2022/09/04 04:23:32;;;;;;;2.72;1.80;;;;;;;9.32;82.93;100069.28;4952177;28;20043;-45
2022/09/04 04:26:13;;;;;;;4.38;2.00;;;;;;;9.39;82.14;100077.78;4970736;28;20423;-43
2022/09/04 04:28:55;;;;;;;5.75;2.10;;;;;;;9.43;81.09;100069.03;4987673;28;20093;-43
2022/09/04 04:32:09;;;;;;;3.35;1.88;;;;;;;9.51;80.51;100064.53;4970989;28;20129;-42
2022/09/04 04:35:12;;;;;;;4.55;1.90;;;;;;;9.56;80.36;100067.03;4983065;28;20039;-42
2022/09/04 04:37:50;;;;;;;3.22;1.70;;;;;;;9.61;79.34;100068.63;4972616;28;20090;-43
2022/09/04 04:40:42;;;;;;;2.95;2.20;;;;;;;9.66;78.46;100077.16;4972109;28;20050;-42
2022/09/04 04:43:31;;;;;;;7.30;2.13;;;;;;;9.72;77.96;100073.53;4936520;28;20070;-42
2022/09/04 04:46:06;;;;;;;5.75;1.40;;;;;;;9.76;77.04;100072.56;4954926;28;20486;-41
2022/09/04 04:49:09;;;;;;;2.35;1.73;;;;;;;9.83;76.72;100070.69;4970403;28;20057;-43
2022/09/04 04:51:59;;;;;;;3.75;1.70;;;;;;;9.83;75.10;100071.53;4967792;28;20043;-43
2022/09/04 04:54:40;;;;;;;2.00;1.40;;;;;;;9.86;74.35;100071.44;4960413;28;20422;-43
2022/09/04 04:57:19;;;;;;;4.78;1.73;;;;;;;9.96;73.91;100066.88;4968829;28;20042;-43
2022/09/04 05:00:18;;;;;;;2.13;1.33;;;;;;;10.05;73.80;100067.47;4971519;28;20150;-42
2022/09/04 05:03:06;;;;;;;2.58;1.50;;;;;;;10.11;72.70;100067.31;4986836;28;20065;-41
2022/09/04 05:06:08;;;;;;;3.63;1.50;;;;;;;10.23;73.25;100061.00;4955062;28;20046;-42
2022/09/04 05:08:56;;;;;;;5.18;1.50;;;;;;;10.34;72.49;100073.69;4953322;28;20090;-42
2022/09/04 05:11:21;;;;;;;2.55;1.70;;;;;;;10.46;72.25;100063.81;4970213;28;20043;-41
2022/09/04 05:13:56;;;;;;;3.15;1.75;;;;;;;10.57;71.93;100059.16;4972042;28;20049;-42
2022/09/04 05:16:48;;;;;;;4.50;1.60;;;;;;;10.70;71.15;100066.63;4970400;28;20506;-41
2022/09/04 05:19:31;;;;;;;1.90;1.30;;;;;;;10.77;70.61;100056.00;4954871;28;20055;-41
2022/09/04 05:22:12;;;;;;;2.00;1.30;;;;;;;10.87;69.48;100065.25;4954548;28;20134;-42
2022/09/04 05:24:50;;;;;;;3.38;1.50;;;;;;;10.99;68.67;100070.06;4969911;28;20054;-42
2022/09/04 05:27:19;;;;;;;3.15;1.63;;;;;;;11.10;68.10;100077.53;4970281;28;20498;-42
2022/09/04 05:29:55;;;;;;;2.55;1.33;;;;;;;11.20;67.98;100068.56;4971546;28;20140;-44
2022/09/04 05:32:34;;;;;;;3.05;1.40;;;;;;;11.31;66.92;100076.03;4971790;28;20125;-42
2022/09/04 05:35:03;;;;;;;1.85;1.35;;;;;;;11.42;66.89;100072.19;4968853;28;20510;-43
2022/09/04 05:38:06;;;;;;;3.65;1.60;;;;;;;11.60;66.13;100073.38;4970277;28;20074;-41
2022/09/04 05:40:38;;;;;;;1.80;1.33;;;;;;;11.69;65.96;100075.69;4970367;28;20051;-41
2022/09/04 05:43:23;;;;;;;3.50;1.20;;;;;;;11.84;65.40;100076.94;4970219;28;20038;-42
2022/09/04 05:46:03;;;;;;;2.72;1.40;;;;;;;12.01;64.49;100073.78;4985321;28;20142;-42
2022/09/04 05:48:43;;;;;;;3.20;1.73;;;;;;;12.25;64.28;100085.97;4969309;28;20038;-45
2022/09/04 05:51:31;;;;;;;3.35;1.40;;;;;;;12.30;63.55;100082.31;4969348;28;20041;-43
2022/09/04 05:54:20;;;;;;;6.65;1.48;;;;;;;12.57;63.02;100080.47;4970336;28;20042;-43
2022/09/04 05:56:58;;;;;;;3.33;1.05;;;;;;;12.87;62.70;100075.91;4970748;28;20039;-45
2022/09/04 05:59:45;;;;;;;2.25;1.40;;;;;;;13.34;61.25;100076.72;4967245;28;20043;-42
2022/09/04 06:02:43;;;;;;;1.98;1.15;;;;;;;13.78;58.60;100076.69;4957621;28;20042;-44
2022/09/04 06:05:21;;;;;;;3.30;1.35;;;;;;;14.17;56.80;100053.25;4944926;28;20057;-40
2022/09/04 06:07:46;;;;;;;1.65;0.98;;;;;;;15.17;54.42;100088.88;4967463;28;20045;-41
2022/09/04 06:10:16;;;;;;;1.48;1.10;;;;;;;16.26;52.49;100092.28;4971421;28;20055;-42
2022/09/04 06:12:54;;;;;;;1.10;1.00;;;;;;;17.32;49.77;100087.44;4966774;28;20137;-42
2022/09/04 06:15:36;;;;;;;2.05;0.85;;;;;;;18.05;47.30;100090.34;4971118;28;20055;-43
2022/09/04 06:18:22;;;;;;;1.92;1.20;;;;;;;19.07;45.10;100090.25;4969002;28;20051;-41
2022/09/04 06:21:22;;;;;;;1.63;0.98;;;;;;;20.00;42.80;100095.63;4967780;28;20054;-42
2022/09/04 06:24:25;;;;;;;2.08;1.10;;;;;;;20.74;40.53;100097.63;4970673;28;20495;-43
2022/09/04 06:27:22;;;;;;;1.88;1.20;;;;;;;21.86;38.81;100094.78;4970562;28;20043;-43
2022/09/04 06:30:03;;;;;;;3.03;1.05;;;;;;;22.92;36.88;100096.41;4970236;28;20038;-47
2022/09/04 06:32:57;;;;;;;1.65;1.08;;;;;;;23.22;34.51;100087.78;4970075;28;20038;-46
2022/09/04 06:35:43;;;;;;;1.55;1.10;;;;;;;24.08;33.08;100093.06;4969208;28;20042;-48
2022/09/04 06:38:37;;;;;;;1.05;0.90;;;;;;;24.70;32.32;100095.75;4970061;28;20106;-45
2022/09/04 06:41:24;;;;;;;1.50;0.88;;;;;;;25.80;30.93;100086.03;4969811;28;20065;-46
2022/09/04 06:44:12;;;;;;;2.95;1.25;;;;;;;26.83;29.41;100093.16;4954190;28;20039;-44
2022/09/04 06:47:12;;;;;;;1.35;1.20;;;;;;;27.72;28.07;100093.41;4969886;28;20185;-45
2022/09/04 06:50:00;;;;;;;3.28;1.45;;;;;;;28.47;26.84;100094.75;4967859;28;20458;-45
2022/09/04 06:52:54;;;;;;;2.03;1.20;;;;;;;29.21;26.36;100094.97;4969780;28;20081;-43
2022/09/04 06:55:29;;;;;;;2.25;1.10;;;;;;;29.78;25.11;100090.59;4951372;28;20082;-45
2022/09/04 06:57:58;;;;;;;2.67;1.25;;;;;;;30.28;24.21;100092.34;4953305;28;20141;-45
2022/09/04 07:00:27;;;;;;;4.05;1.20;;;;;;;30.94;23.65;100085.81;4970202;28;20053;-43
2022/09/04 07:03:02;;;;;;;2.10;1.23;;;;;;;31.75;22.83;100083.59;4969398;28;20125;-45
2022/09/04 07:05:46;;;;;;;2.20;1.10;;;;;;;31.94;22.13;100093.03;4974691;28;20108;-42
2022/09/04 07:08:23;;;;;;;4.20;1.52;;;;;;;31.52;21.68;100088.09;4966748;28;20132;-43
2022/09/04 07:10:58;;;;;;;1.20;1.10;;;;;;;30.38;22.24;100082.25;4967464;28;20038;-44
2022/09/04 07:13:43;;;;;;;4.80;1.30;;;;;;;31.14;21.63;100082.56;4969031;28;20047;-44
2022/09/04 07:16:18;;;;;;;5.03;0.95;;;;;;;32.19;20.99;100083.78;4951595;28;20592;-44
2022/09/04 07:18:58;;;;;;;5.88;1.30;;;;;;;31.72;20.36;100070.50;4966620;28;20057;-46
2022/09/04 07:21:53;;;;;;;1.20;1.10;;;;;;;30.81;20.55;100081.03;4967254;28;20067;-45
2022/09/04 07:24:28;;;;;;;3.28;1.10;;;;;;;31.70;20.26;100071.72;4967550;28;20097;-44
2022/09/04 07:27:11;;;;;;;1.63;1.10;;;;;;;32.17;19.70;100074.22;4969221;28;20449;-46
2022/09/04 07:29:52;;;;;;;1.30;1.02;;;;;;;33.35;19.22;100069.69;4948207;28;20046;-47
2022/09/04 07:32:23;;;;;;;1.33;1.10;;;;;;;33.63;18.89;100066.09;4969332;28;20046;-48
2022/09/04 07:35:12;;;;;;;1.90;1.30;;;;;;;33.84;18.39;100062.59;4959687;28;20043;-46
2022/09/04 07:38:05;;;;;;;1.73;1.08;;;;;;;33.14;18.35;100030.03;4959422;28;20109;-44
2022/09/04 07:41:09;;;;;;;0.80;0.68;;;;;;;33.17;18.46;100062.03;4966094;28;20063;-50
2022/09/04 07:44:02;;;;;;;1.48;0.50;;;;;;;30.35;20.28;100050.41;4946855;28;20051;-49
2022/09/04 07:46:43;;;;;;;0.90;0.80;;;;;;;30.46;20.34;100050.03;4962463;28;20054;-45
2022/09/04 07:49:45;;;;;;;2.72;0.95;;;;;;;29.92;20.72;100040.06;4968402;28;20072;-47
2022/09/04 07:52:34;;;;;;;0.90;0.80;;;;;;;30.39;20.18;100038.31;4964964;28;20497;-46
2022/09/04 07:55:20;;;;;;;1.30;0.70;;;;;;;28.15;22.39;100036.53;4975060;28;20043;-45
2022/09/04 07:58:12;;;;;;;1.63;0.57;;;;;;;27.06;23.36;100034.91;4956161;28;20396;-44
2022/09/04 08:00:50;;;;;;;1.48;0.60;;;;;;;25.78;24.92;100014.22;4972531;28;20074;-45
2022/09/04 08:03:35;;;;;;;1.45;0.90;;;;;;;24.49;26.40;100036.47;4965758;28;20140;-44
2022/09/04 08:06:06;;;;;;;3.53;1.23;;;;;;;23.17;28.46;100039.56;4970428;28;20054;-45
2022/09/04 08:08:54;;;;;;;1.67;0.95;;;;;;;25.51;26.10;100027.38;4971855;28;20088;-43
2022/09/04 08:11:38;;;;;;;0.65;0.50;;;;;;;26.92;24.28;100009.56;4969478;28;20049;-46
2022/09/04 08:14:18;;;;;;;2.47;0.90;;;;;;;25.66;24.61;100031.34;4972070;28;20051;-44
2022/09/04 08:16:56;;;;;;;0.98;0.70;;;;;;;23.68;26.96;100030.97;4971854;28;20078;-46
2022/09/04 08:19:47;;;;;;;3.27;0.90;;;;;;;22.55;28.13;100029.47;4965290;28;20041;-44
2022/09/04 08:22:26;;;;;;;0.80;0.52;;;;;;;21.70;28.90;100024.56;4961506;28;20121;-44
2022/09/04 08:25:19;;;;;;;1.15;0.40;;;;;;;21.01;29.63;100021.66;4968864;28;20090;-48
2022/09/04 08:27:48;;;;;;;0.70;0.70;;;;;;;21.09;29.65;100026.41;4970763;28;20746;-45
2022/09/04 08:30:19;;;;;;;1.42;0.90;;;;;;;22.03;28.29;100015.91;4971587;28;20081;-44
2022/09/04 08:33:08;;;;;;;1.00;0.50;;;;;;;23.07;27.27;100020.91;4972460;28;20039;-44
2022/09/04 08:35:55;;;;;;;0.80;0.80;;;;;;;23.70;26.98;100015.78;4967324;28;20043;-49
2022/09/04 08:38:28;;;;;;;1.05;0.60;;;;;;;25.68;25.11;100010.75;4959613;28;20066;-46
2022/09/04 08:41:12;;;;;;;0.88;0.52;;;;;;;24.74;25.80;100005.91;4971840;28;20055;-45
2022/09/04 08:44:02;;;;;;;3.22;1.30;;;;;;;23.64;26.94;100006.50;4987691;28;20082;-45
2022/09/04 08:46:52;;;;;;;1.17;0.65;;;;;;;24.79;26.17;100001.03;4970030;28;20051;-54
2022/09/04 08:49:36;;;;;;;1.75;0.70;;;;;;;24.27;26.90;100007.38;4970294;28;20066;-43
2022/09/04 08:52:26;;;;;;;5.57;1.17;;;;;;;22.96;28.30;100004.16;4972351;28;20039;-47
2022/09/04 08:55:10;;;;;;;2.58;0.90;;;;;;;23.09;28.37;99999.53;4971824;28;20466;-48
2022/09/04 08:57:48;;;;;;;1.73;0.90;;;;;;;25.71;25.63;99989.97;4967837;28;20046;-44
2022/09/04 09:00:15;;;;;;;4.45;0.70;;;;;;;27.08;24.08;99994.72;4963825;28;20755;-46
2022/09/04 09:03:08;;;;;;;1.95;1.00;;;;;;;25.56;25.10;99988.72;4971403;28;20047;-44
2022/09/04 09:06:05;;;;;;;1.80;1.00;;;;;;;24.03;26.44;99995.19;4959492;28;20431;-45
2022/09/04 09:08:56;;;;;;;3.13;0.50;;;;;;;22.70;26.70;99987.66;4972874;28;20058;-46
2022/09/04 09:11:41;;;;;;;1.48;0.80;;;;;;;24.58;25.28;99986.94;4970481;28;20129;-46
2022/09/04 09:14:41;;;;;;;1.05;0.70;;;;;;;27.90;22.33;99987.31;4969867;28;20047;-46
2022/09/04 09:17:11;;;;;;;0.95;0.90;;;;;;;29.61;20.97;99988.94;4961962;28;20078;-48
2022/09/04 09:20:09;;;;;;;1.13;0.98;;;;;;;31.21;19.17;99986.00;4970723;28;20050;-48
2022/09/04 09:22:54;;;;;;;;;;;;;;;32.83;18.46;99992.56;4969635;28;20050;-45
2022/09/04 09:25:45;;;;;;;0.98;0.50;;;;;;;31.86;18.62;99988.22;4960402;28;20363;-45
2022/09/04 09:28:36;;;;;;;2.45;0.85;;;;;;;28.73;20.00;99982.34;4946293;28;20043;-45
2022/09/04 09:31:33;;;;;;;0.47;0.47;;;;;;;26.21;21.06;99991.56;4970668;28;20053;-47
2022/09/04 09:34:06;;;;;;;1.52;0.80;;;;;;;24.37;23.00;99992.31;4965509;28;20046;-48
2022/09/04 09:36:58;;;;;;;0.70;0.70;;;;;;;26.24;21.71;99984.16;4959716;28;20042;-49
2022/09/04 09:39:27;;;;;;;1.65;0.90;;;;;;;26.49;21.35;99993.31;4954575;28;20561;-42
2022/09/04 09:42:17;;;;;;;2.50;0.80;;;;;;;27.51;20.87;99994.88;4967151;28;20047;-49
2022/09/04 09:45:11;;;;;;;1.77;0.90;;;;;;;28.32;20.20;99990.13;4967007;28;20069;-45
2022/09/04 09:47:58;;;;;;;1.85;0.70;;;;;;;28.91;19.53;99989.28;4969339;28;20046;-48
2022/09/04 09:50:43;;;;;;;1.07;0.60;;;;;;;26.81;19.62;99971.53;4968087;28;20073;-45
2022/09/04 09:53:43;;;;;;;1.80;0.90;;;;;;;25.74;20.80;99972.88;4965905;28;20086;-43
2022/09/04 09:56:47;;;;;;;1.13;0.80;;;;;;;29.27;17.94;99968.44;4952611;28;20510;-44
2022/09/04 09:59:31;;;;;;;1.10;1.00;;;;;;;31.51;16.97;99979.72;4967672;28;20041;-46
2022/09/04 10:02:29;;;;;;;4.03;0.93;;;;;;;33.49;16.12;99977.16;4965648;28;20535;-49
2022/09/04 10:05:18;;;;;;;0.68;0.60;;;;;;;31.28;17.27;99980.75;4964676;28;20043;-47
2022/09/04 10:07:59;;;;;;;1.00;0.80;;;;;;;28.55;18.30;99972.53;4965210;28;20041;-50
2022/09/04 10:11:02;;;;;;;2.70;1.70;;;;;;;30.56;17.21;99972.06;4962103;28;20050;-48
2022/09/04 10:13:54;;;;;;;4.30;1.05;;;;;;;32.84;15.40;99966.47;4965094;28;20545;-45
2022/09/04 10:16:27;;;;;;;1.40;0.70;;;;;;;31.31;16.37;99975.84;4968094;28;20136;-50
2022/09/04 10:18:58;;;;;;;2.58;0.77;;;;;;;29.27;17.91;99971.09;4949195;28;20049;-44
2022/09/04 10:22:00;;;;;;;2.65;0.70;;;;;;;27.63;19.55;99974.13;4963862;28;20031;-46
2022/09/04 10:25:01;;;;;;;2.05;0.80;;;;;;;26.42;20.39;99962.91;4961461;28;20069;-45
2022/09/04 10:27:45;;;;;;;1.35;1.02;;;;;;;28.45;19.29;99974.50;4963066;28;20510;-45
2022/09/04 10:30:20;;;;;;;1.85;1.10;;;;;;;31.28;17.72;99972.69;4962854;28;20050;-45
2022/09/04 10:32:50;;;;;;;2.45;1.00;;;;;;;33.42;16.19;99978.94;4964982;28;20049;-44
2022/09/04 10:35:45;;;;;;;0.95;0.73;;;;;;;32.90;15.87;99971.09;4981642;28;20065;-46
2022/09/04 10:40:34;;;;;;;1.67;0.70;;;;;;;29.84;17.29;99963.94;4950181;28;20522;-47
2022/09/04 10:41:27;;;;;;;1.00;0.63;;;;;;;26.88;19.75;99962.00;4967770;28;20053;-48
2022/09/04 10:44:25;;;;;;;0.93;0.90;;;;;;;27.08;19.01;99965.38;4963585;28;20176;-47
2022/09/04 10:46:59;;;;;;;2.75;1.52;;;;;;;29.57;17.75;99952.75;4965389;28;20076;-46
2022/09/04 10:49:41;;;;;;;1.60;1.00;;;;;;;32.40;15.74;99961.13;4965491;28;20492;-46
2022/09/04 10:52:25;;;;;;;2.45;1.10;;;;;;;31.82;15.74;99960.03;4967881;28;20046;-47
2022/09/04 10:55:13;;;;;;;1.20;1.10;;;;;;;32.36;15.90;99957.94;4963985;28;20832;-46
2022/09/04 10:57:54;;;;;;;2.97;0.80;;;;;;;31.38;16.84;99962.53;4965653;28;20043;-43
2022/09/04 11:00:21;;;;;;;1.48;0.80;;;;;;;29.13;18.58;99918.19;4964430;28;20544;-47
2022/09/04 11:03:09;;;;;;;3.47;1.00;;;;;;;27.65;20.25;99954.25;4966425;28;20499;-47
2022/09/04 11:06:27;;;;;;;2.15;1.02;;;;;;;26.44;21.78;99953.75;4962906;28;20070;-43
2022/09/04 11:09:27;;;;;;;1.40;0.80;;;;;;;25.95;22.36;99957.56;4952648;28;20810;-49
2022/09/04 11:12:11;;;;;;;3.58;1.10;;;;;;;25.71;22.31;99949.19;4975022;28;20046;-48
2022/09/04 11:15:09;;;;;;;1.10;0.88;;;;;;;25.10;23.38;99953.94;4963107;28;20049;-45
2022/09/04 11:18:03;;;;;;;1.50;1.02;;;;;;;26.51;22.23;99944.19;4956435;28;20553;-46
2022/09/04 11:20:35;;;;;;;1.45;1.05;;;;;;;27.02;21.73;99944.63;4967919;28;20034;-46
2022/09/04 11:23:19;;;;;;;2.05;0.90;;;;;;;26.00;22.54;99943.81;4963123;28;20122;-46
2022/09/04 11:26:04;;;;;;;7.00;1.10;;;;;;;25.02;23.05;99938.66;4956804;28;20601;-44
2022/09/04 11:28:54;;;;;;;0.90;0.70;;;;;;;24.22;23.27;99930.72;4966343;28;20050;-48
2022/09/04 11:31:45;;;;;;;1.95;1.05;;;;;;;23.60;23.82;99928.09;4970734;28;20034;-45
2022/09/04 11:34:50;;;;;;;1.67;0.70;;;;;;;22.98;24.51;99936.75;4967854;28;20042;-44
2022/09/04 11:37:57;;;;;;;0.98;0.70;;;;;;;22.05;24.76;99932.75;4957819;28;20535;-47
2022/09/04 11:40:26;;;;;;;1.42;0.77;;;;;;;21.75;25.35;99943.00;4971850;28;20058;-43
2022/09/04 11:42:52;;;;;;;;;;;;;;;21.18;25.91;99932.38;4969929;28;20055;-46
2022/09/04 11:45:48;;;;;;;1.30;0.90;;;;;;;20.33;27.59;99935.88;4970183;28;19953;-47
2022/09/04 11:48:40;;;;;;;2.58;1.08;;;;;;;20.36;27.99;99941.78;4971208;28;20043;-44
2022/09/04 11:51:39;;;;;;;2.08;1.23;;;;;;;20.35;28.73;99931.34;4970290;28;20041;-44
2022/09/04 11:54:39;;;;;;;1.90;0.88;;;;;;;20.20;29.19;99930.59;4969371;28;20101;-45
2022/09/04 11:57:41;;;;;;;2.85;1.25;;;;;;;20.05;29.60;99929.00;4970649;28;20038;-45
2022/09/04 12:00:15;;;;;;;1.90;0.90;;;;;;;19.88;30.15;99927.56;4968162;28;20503;-44
2022/09/04 12:03:01;;;;;;;4.22;0.95;;;;;;;19.74;30.18;99928.47;4969461;28;20047;-46
2022/09/04 12:05:39;;;;;;;0.80;0.70;;;;;;;19.60;30.42;99933.84;4967183;28;20077;-47
2022/09/04 12:08:05;;;;;;;1.15;0.85;;;;;;;19.52;30.62;99930.06;4969437;28;20069;-45
2022/09/04 12:10:44;;;;;;;2.42;0.90;;;;;;;19.73;30.25;99934.69;4972279;28;20113;-44
2022/09/04 12:13:16;;;;;;;;;;;;;;;20.07;29.87;99930.59;4967065;28;20078;-45
2022/09/04 12:16:11;;;;;;;1.50;0.80;;;;;;;21.24;28.57;99935.41;4975222;28;19918;-47
2022/09/04 12:18:59;;;;;;;6.10;3.70;;;;;;;22.44;26.47;99927.94;4983583;28;20094;-47
2022/09/04 12:21:40;;;;;;;0.98;0.60;;;;;;;22.48;26.13;99926.72;4968124;28;20050;-45
2022/09/04 12:24:38;;;;;;;1.40;0.68;;;;;;;22.23;26.50;99925.16;4962691;28;20167;-45
2022/09/04 12:27:22;;;;;;;1.08;0.70;;;;;;;21.59;26.93;99930.09;4954708;28;20138;-45
2022/09/04 12:30:19;;;;;;;0.90;0.77;;;;;;;20.90;28.14;99923.78;4966075;28;20070;-44
2022/09/04 12:33:17;;;;;;;2.67;0.90;;;;;;;20.46;28.97;99924.38;4965976;28;20917;-46
2022/09/04 12:36:13;;;;;;;2.07;1.03;;;;;;;20.04;30.05;99927.34;4951505;28;20121;-48
2022/09/04 12:38:54;;;;;;;1.38;0.90;;;;;;;19.70;30.67;99936.72;4967182;28;20301;-47
2022/09/04 12:41:29;;;;;;;1.00;0.82;;;;;;;19.40;30.99;99923.78;4962466;28;20173;-45
2022/09/04 12:44:24;;;;;;;7.72;3.92;;;;;;;19.21;31.02;99920.69;4968541;28;20534;-46
2022/09/04 12:47:27;;;;;;;4.10;0.73;;;;;;;19.12;30.90;99926.53;4964572;28;20123;-45
2022/09/04 12:50:27;;;;;;;0.90;0.70;;;;;;;19.48;30.68;99929.41;4964224;28;20039;-45
2022/09/04 12:53:04;;;;;;;2.13;0.65;;;;;;;21.01;28.86;99921.19;4967109;28;20093;-45
2022/09/04 12:55:37;;;;;;;1.92;0.60;;;;;;;20.86;28.84;99922.31;4962706;28;20417;-44